sensor_id;sensor_type;location;lat;lon;timestamp;P1;durP1;ratioP1;P2;durP2;ratioP2
72676;SDS011;60755;51.374;10.662;2024-02-26T00:02:01;2.87;;;2.67;;
72676;SDS011;60755;51.374;10.662;2024-02-26T00:04:28;2.20;;;2.10;;
72676;SDS011;60755;51.374;10.662;2024-02-26T00:06:55;3.13;;;2.50;;
72676;SDS011;60755;51.374;10.662;2024-02-26T00:09:23;3.20;;;3.00;;
72676;SDS011;60755;51.374;10.662;2024-02-26T00:11:51;2.20;;;2.10;;
72676;SDS011;60755;51.374;10.662;2024-02-26T00:14:18;2.00;;;1.90;;
72676;SDS011;60755;51.374;10.662;2024-02-26T00:16:45;1.90;;;1.80;;
72676;SDS011;60755;51.374;10.662;2024-02-26T00:19:14;1.90;;;1.80;;
72676;SDS011;60755;51.374;10.662;2024-02-26T00:21:41;1.90;;;1.80;;
72676;SDS011;60755;51.374;10.662;2024-02-26T00:24:08;2.00;;;1.90;;
72676;SDS011;60755;51.374;10.662;2024-02-26T00:26:36;1.90;;;1.80;;
72676;SDS011;60755;51.374;10.662;2024-02-26T00:29:03;2.07;;;1.97;;
72676;SDS011;60755;51.374;10.662;2024-02-26T00:31:30;2.67;;;2.47;;
72676;SDS011;60755;51.374;10.662;2024-02-26T00:33:58;1.80;;;1.70;;
72676;SDS011;60755;51.374;10.662;2024-02-26T00:36:26;2.17;;;1.83;;
72676;SDS011;60755;51.374;10.662;2024-02-26T00:38:54;1.90;;;1.80;;
72676;SDS011;60755;51.374;10.662;2024-02-26T00:41:21;2.00;;;1.80;;
72676;SDS011;60755;51.374;10.662;2024-02-26T00:43:48;3.07;;;2.23;;
72676;SDS011;60755;51.374;10.662;2024-02-26T00:46:16;2.57;;;2.20;;
72676;SDS011;60755;51.374;10.662;2024-02-26T00:48:43;3.07;;;1.70;;
72676;SDS011;60755;51.374;10.662;2024-02-26T00:51:10;1.40;;;1.40;;
72676;SDS011;60755;51.374;10.662;2024-02-26T00:53:39;1.43;;;1.43;;
72676;SDS011;60755;51.374;10.662;2024-02-26T00:56:06;1.73;;;1.63;;
72676;SDS011;60755;51.374;10.662;2024-02-26T00:58:33;1.87;;;1.50;;
72676;SDS011;60755;51.374;10.662;2024-02-26T01:01:01;1.40;;;1.40;;
72676;SDS011;60755;51.374;10.662;2024-02-26T01:03:28;2.00;;;1.70;;
72676;SDS011;60755;51.374;10.662;2024-02-26T01:05:55;1.70;;;1.67;;
72676;SDS011;60755;51.374;10.662;2024-02-26T01:08:23;1.80;;;1.70;;
72676;SDS011;60755;51.374;10.662;2024-02-26T01:10:53;1.83;;;1.73;;
72676;SDS011;60755;51.374;10.662;2024-02-26T01:13:20;1.50;;;1.40;;
72676;SDS011;60755;51.374;10.662;2024-02-26T01:15:47;2.50;;;2.10;;
72676;SDS011;60755;51.374;10.662;2024-02-26T01:18:15;3.23;;;2.60;;
72676;SDS011;60755;51.374;10.662;2024-02-26T01:20:42;2.33;;;2.20;;
72676;SDS011;60755;51.374;10.662;2024-02-26T01:23:10;1.90;;;1.80;;
72676;SDS011;60755;51.374;10.662;2024-02-26T01:25:37;1.90;;;1.80;;
72676;SDS011;60755;51.374;10.662;2024-02-26T01:28:06;2.00;;;1.90;;
72676;SDS011;60755;51.374;10.662;2024-02-26T01:30:33;2.00;;;1.90;;
72676;SDS011;60755;51.374;10.662;2024-02-26T01:33:00;1.90;;;1.80;;
72676;SDS011;60755;51.374;10.662;2024-02-26T01:35:27;2.10;;;2.00;;
72676;SDS011;60755;51.374;10.662;2024-02-26T01:37:55;2.10;;;2.00;;
72676;SDS011;60755;51.374;10.662;2024-02-26T01:40:26;2.10;;;2.00;;
72676;SDS011;60755;51.374;10.662;2024-02-26T01:42:53;2.53;;;2.33;;
72676;SDS011;60755;51.374;10.662;2024-02-26T01:45:22;3.53;;;2.33;;
72676;SDS011;60755;51.374;10.662;2024-02-26T01:47:50;2.63;;;2.43;;
72676;SDS011;60755;51.374;10.662;2024-02-26T01:50:18;2.67;;;2.53;;
72676;SDS011;60755;51.374;10.662;2024-02-26T01:52:47;2.90;;;2.70;;
72676;SDS011;60755;51.374;10.662;2024-02-26T01:55:16;4.17;;;3.17;;
72676;SDS011;60755;51.374;10.662;2024-02-26T01:57:45;3.00;;;2.80;;
72676;SDS011;60755;51.374;10.662;2024-02-26T02:00:13;3.20;;;2.63;;
72676;SDS011;60755;51.374;10.662;2024-02-26T02:02:44;5.93;;;4.70;;
72676;SDS011;60755;51.374;10.662;2024-02-26T02:05:12;4.03;;;3.70;;
72676;SDS011;60755;51.374;10.662;2024-02-26T02:07:42;4.13;;;3.73;;
72676;SDS011;60755;51.374;10.662;2024-02-26T02:10:10;5.63;;;3.93;;
72676;SDS011;60755;51.374;10.662;2024-02-26T02:12:37;4.17;;;3.77;;
72676;SDS011;60755;51.374;10.662;2024-02-26T02:15:06;5.33;;;4.50;;
72676;SDS011;60755;51.374;10.662;2024-02-26T02:17:33;6.53;;;4.67;;
72676;SDS011;60755;51.374;10.662;2024-02-26T02:20:02;8.20;;;5.67;;
72676;SDS011;60755;51.374;10.662;2024-02-26T02:22:32;7.60;;;5.27;;
72676;SDS011;60755;51.374;10.662;2024-02-26T02:24:59;6.53;;;5.33;;
72676;SDS011;60755;51.374;10.662;2024-02-26T02:27:26;7.60;;;5.77;;
72676;SDS011;60755;51.374;10.662;2024-02-26T02:29:54;6.43;;;5.47;;
72676;SDS011;60755;51.374;10.662;2024-02-26T02:32:22;8.27;;;6.43;;
72676;SDS011;60755;51.374;10.662;2024-02-26T02:34:51;8.40;;;6.30;;
72676;SDS011;60755;51.374;10.662;2024-02-26T02:37:18;10.13;;;6.70;;
72676;SDS011;60755;51.374;10.662;2024-02-26T02:39:47;10.70;;;6.83;;
72676;SDS011;60755;51.374;10.662;2024-02-26T02:42:14;12.27;;;8.53;;
72676;SDS011;60755;51.374;10.662;2024-02-26T02:44:42;9.90;;;7.27;;
72676;SDS011;60755;51.374;10.662;2024-02-26T02:47:10;10.23;;;7.43;;
72676;SDS011;60755;51.374;10.662;2024-02-26T02:49:37;10.83;;;8.00;;
72676;SDS011;60755;51.374;10.662;2024-02-26T02:52:05;12.63;;;8.50;;
72676;SDS011;60755;51.374;10.662;2024-02-26T02:54:33;16.40;;;9.17;;
72676;SDS011;60755;51.374;10.662;2024-02-26T02:57:02;14.43;;;8.93;;
72676;SDS011;60755;51.374;10.662;2024-02-26T02:59:30;14.10;;;9.20;;
72676;SDS011;60755;51.374;10.662;2024-02-26T03:01:57;13.73;;;9.13;;
72676;SDS011;60755;51.374;10.662;2024-02-26T03:04:24;15.73;;;9.37;;
72676;SDS011;60755;51.374;10.662;2024-02-26T03:06:52;15.17;;;9.13;;
72676;SDS011;60755;51.374;10.662;2024-02-26T03:09:19;15.27;;;9.30;;
72676;SDS011;60755;51.374;10.662;2024-02-26T03:11:46;13.87;;;9.03;;
72676;SDS011;60755;51.374;10.662;2024-02-26T03:14:15;12.53;;;8.97;;
72676;SDS011;60755;51.374;10.662;2024-02-26T03:16:42;17.37;;;9.77;;
72676;SDS011;60755;51.374;10.662;2024-02-26T03:19:09;15.67;;;9.87;;
72676;SDS011;60755;51.374;10.662;2024-02-26T03:21:36;14.50;;;9.73;;
72676;SDS011;60755;51.374;10.662;2024-02-26T03:24:04;17.23;;;10.83;;
72676;SDS011;60755;51.374;10.662;2024-02-26T03:26:32;18.07;;;10.93;;
72676;SDS011;60755;51.374;10.662;2024-02-26T03:28:59;16.30;;;10.47;;
72676;SDS011;60755;51.374;10.662;2024-02-26T03:31:29;18.80;;;11.57;;
72676;SDS011;60755;51.374;10.662;2024-02-26T03:33:56;19.53;;;11.47;;
72676;SDS011;60755;51.374;10.662;2024-02-26T03:36:24;21.90;;;11.90;;
72676;SDS011;60755;51.374;10.662;2024-02-26T03:38:51;19.83;;;11.83;;
72676;SDS011;60755;51.374;10.662;2024-02-26T03:41:18;18.63;;;11.37;;
72676;SDS011;60755;51.374;10.662;2024-02-26T03:43:45;20.50;;;11.87;;
72676;SDS011;60755;51.374;10.662;2024-02-26T03:46:13;19.07;;;11.17;;
72676;SDS011;60755;51.374;10.662;2024-02-26T03:48:41;24.30;;;10.87;;
72676;SDS011;60755;51.374;10.662;2024-02-26T03:51:08;20.10;;;12.23;;
72676;SDS011;60755;51.374;10.662;2024-02-26T03:53:36;20.63;;;12.20;;
72676;SDS011;60755;51.374;10.662;2024-02-26T03:56:04;20.13;;;13.17;;
72676;SDS011;60755;51.374;10.662;2024-02-26T03:58:32;18.47;;;11.27;;
72676;SDS011;60755;51.374;10.662;2024-02-26T04:01:00;23.90;;;13.27;;
72676;SDS011;60755;51.374;10.662;2024-02-26T04:03:28;25.20;;;14.03;;
72676;SDS011;60755;51.374;10.662;2024-02-26T04:05:56;27.93;;;15.50;;
72676;SDS011;60755;51.374;10.662;2024-02-26T04:08:27;23.80;;;14.87;;
72676;SDS011;60755;51.374;10.662;2024-02-26T04:10:54;26.20;;;14.93;;
72676;SDS011;60755;51.374;10.662;2024-02-26T04:13:21;28.17;;;16.87;;
72676;SDS011;60755;51.374;10.662;2024-02-26T04:15:48;27.80;;;16.47;;
72676;SDS011;60755;51.374;10.662;2024-02-26T04:18:15;29.83;;;16.77;;
72676;SDS011;60755;51.374;10.662;2024-02-26T04:20:43;30.77;;;16.53;;
72676;SDS011;60755;51.374;10.662;2024-02-26T04:23:11;29.17;;;16.77;;
72676;SDS011;60755;51.374;10.662;2024-02-26T04:25:39;31.93;;;17.63;;
72676;SDS011;60755;51.374;10.662;2024-02-26T04:28:06;27.33;;;16.13;;
72676;SDS011;60755;51.374;10.662;2024-02-26T04:30:33;30.63;;;16.97;;
72676;SDS011;60755;51.374;10.662;2024-02-26T04:33:00;30.00;;;18.33;;
72676;SDS011;60755;51.374;10.662;2024-02-26T04:35:28;29.50;;;16.83;;
72676;SDS011;60755;51.374;10.662;2024-02-26T04:37:55;29.37;;;17.60;;
72676;SDS011;60755;51.374;10.662;2024-02-26T04:40:24;29.10;;;17.33;;
72676;SDS011;60755;51.374;10.662;2024-02-26T04:42:52;31.10;;;17.33;;
72676;SDS011;60755;51.374;10.662;2024-02-26T04:45:19;30.90;;;17.40;;
72676;SDS011;60755;51.374;10.662;2024-02-26T04:47:46;32.27;;;18.00;;
72676;SDS011;60755;51.374;10.662;2024-02-26T04:50:14;31.50;;;17.00;;
72676;SDS011;60755;51.374;10.662;2024-02-26T04:52:41;33.43;;;17.47;;
72676;SDS011;60755;51.374;10.662;2024-02-26T04:55:08;31.67;;;18.27;;
72676;SDS011;60755;51.374;10.662;2024-02-26T04:57:37;27.77;;;16.60;;
72676;SDS011;60755;51.374;10.662;2024-02-26T05:00:04;25.50;;;15.53;;
72676;SDS011;60755;51.374;10.662;2024-02-26T05:02:32;27.80;;;16.70;;
72676;SDS011;60755;51.374;10.662;2024-02-26T05:05:04;28.50;;;16.87;;
72676;SDS011;60755;51.374;10.662;2024-02-26T05:07:31;27.83;;;16.43;;
72676;SDS011;60755;51.374;10.662;2024-02-26T05:09:58;27.67;;;16.10;;
72676;SDS011;60755;51.374;10.662;2024-02-26T05:12:26;27.90;;;16.40;;
72676;SDS011;60755;51.374;10.662;2024-02-26T05:14:54;27.43;;;15.87;;
72676;SDS011;60755;51.374;10.662;2024-02-26T05:17:21;27.27;;;15.83;;
72676;SDS011;60755;51.374;10.662;2024-02-26T05:19:49;26.70;;;16.37;;
72676;SDS011;60755;51.374;10.662;2024-02-26T05:22:16;26.70;;;16.03;;
72676;SDS011;60755;51.374;10.662;2024-02-26T05:24:43;29.00;;;17.53;;
72676;SDS011;60755;51.374;10.662;2024-02-26T05:27:10;30.97;;;16.33;;
72676;SDS011;60755;51.374;10.662;2024-02-26T05:29:39;27.53;;;16.07;;
72676;SDS011;60755;51.374;10.662;2024-02-26T05:32:08;27.43;;;15.70;;
72676;SDS011;60755;51.374;10.662;2024-02-26T05:34:35;29.03;;;16.53;;
72676;SDS011;60755;51.374;10.662;2024-02-26T05:37:02;27.43;;;16.80;;
72676;SDS011;60755;51.374;10.662;2024-02-26T05:39:30;27.10;;;15.93;;
72676;SDS011;60755;51.374;10.662;2024-02-26T05:41:57;27.63;;;15.90;;
72676;SDS011;60755;51.374;10.662;2024-02-26T05:44:26;24.57;;;15.37;;
72676;SDS011;60755;51.374;10.662;2024-02-26T05:46:53;25.43;;;15.53;;
72676;SDS011;60755;51.374;10.662;2024-02-26T05:49:21;27.10;;;15.73;;
72676;SDS011;60755;51.374;10.662;2024-02-26T05:51:49;26.63;;;15.83;;
72676;SDS011;60755;51.374;10.662;2024-02-26T05:54:16;29.03;;;16.10;;
72676;SDS011;60755;51.374;10.662;2024-02-26T05:56:43;25.43;;;14.97;;
72676;SDS011;60755;51.374;10.662;2024-02-26T05:59:11;29.27;;;16.43;;
72676;SDS011;60755;51.374;10.662;2024-02-26T06:01:38;29.27;;;15.43;;
72676;SDS011;60755;51.374;10.662;2024-02-26T06:04:05;25.13;;;15.57;;
72676;SDS011;60755;51.374;10.662;2024-02-26T06:06:34;30.53;;;16.23;;
72676;SDS011;60755;51.374;10.662;2024-02-26T06:09:01;26.40;;;16.03;;
72676;SDS011;60755;51.374;10.662;2024-02-26T06:11:30;28.70;;;16.13;;
72676;SDS011;60755;51.374;10.662;2024-02-26T06:13:58;25.37;;;15.97;;
72676;SDS011;60755;51.374;10.662;2024-02-26T06:16:25;28.63;;;16.07;;
72676;SDS011;60755;51.374;10.662;2024-02-26T06:18:53;30.17;;;15.80;;
72676;SDS011;60755;51.374;10.662;2024-02-26T06:21:20;27.63;;;16.00;;
72676;SDS011;60755;51.374;10.662;2024-02-26T06:23:49;24.80;;;15.07;;
72676;SDS011;60755;51.374;10.662;2024-02-26T06:26:16;28.83;;;16.77;;
72676;SDS011;60755;51.374;10.662;2024-02-26T06:28:43;31.33;;;17.60;;
72676;SDS011;60755;51.374;10.662;2024-02-26T06:31:10;30.90;;;18.07;;
72676;SDS011;60755;51.374;10.662;2024-02-26T06:33:38;39.70;;;26.40;;
72676;SDS011;60755;51.374;10.662;2024-02-26T06:36:05;32.53;;;18.83;;
72676;SDS011;60755;51.374;10.662;2024-02-26T06:38:33;35.10;;;21.17;;
72676;SDS011;60755;51.374;10.662;2024-02-26T06:41:01;34.23;;;22.77;;
72676;SDS011;60755;51.374;10.662;2024-02-26T06:43:29;33.47;;;19.17;;
72676;SDS011;60755;51.374;10.662;2024-02-26T06:45:56;26.00;;;16.30;;
72676;SDS011;60755;51.374;10.662;2024-02-26T06:48:24;27.67;;;16.20;;
72676;SDS011;60755;51.374;10.662;2024-02-26T06:50:51;25.57;;;16.57;;
72676;SDS011;60755;51.374;10.662;2024-02-26T06:53:19;34.63;;;18.00;;
72676;SDS011;60755;51.374;10.662;2024-02-26T06:55:46;28.00;;;17.60;;
72676;SDS011;60755;51.374;10.662;2024-02-26T06:58:17;36.10;;;21.77;;
72676;SDS011;60755;51.374;10.662;2024-02-26T07:00:44;25.47;;;16.10;;
72676;SDS011;60755;51.374;10.662;2024-02-26T07:03:11;66.13;;;33.67;;
72676;SDS011;60755;51.374;10.662;2024-02-26T07:05:39;25.73;;;16.17;;
72676;SDS011;60755;51.374;10.662;2024-02-26T07:08:06;30.77;;;17.37;;
72676;SDS011;60755;51.374;10.662;2024-02-26T07:10:34;54.63;;;26.47;;
72676;SDS011;60755;51.374;10.662;2024-02-26T07:13:01;32.40;;;20.27;;
72676;SDS011;60755;51.374;10.662;2024-02-26T07:15:29;25.47;;;15.97;;
72676;SDS011;60755;51.374;10.662;2024-02-26T07:17:57;26.27;;;15.83;;
72676;SDS011;60755;51.374;10.662;2024-02-26T07:20:28;23.00;;;15.23;;
72676;SDS011;60755;51.374;10.662;2024-02-26T07:22:56;22.70;;;14.50;;
72676;SDS011;60755;51.374;10.662;2024-02-26T07:25:23;20.43;;;13.10;;
72676;SDS011;60755;51.374;10.662;2024-02-26T07:27:51;20.07;;;13.30;;
72676;SDS011;60755;51.374;10.662;2024-02-26T07:30:18;23.07;;;14.00;;
72676;SDS011;60755;51.374;10.662;2024-02-26T07:32:46;20.63;;;13.10;;
72676;SDS011;60755;51.374;10.662;2024-02-26T07:35:14;20.43;;;13.20;;
72676;SDS011;60755;51.374;10.662;2024-02-26T07:37:42;21.03;;;13.27;;
72676;SDS011;60755;51.374;10.662;2024-02-26T07:40:09;20.93;;;12.87;;
72676;SDS011;60755;51.374;10.662;2024-02-26T07:42:37;21.83;;;13.93;;
72676;SDS011;60755;51.374;10.662;2024-02-26T07:45:05;19.40;;;12.60;;
72676;SDS011;60755;51.374;10.662;2024-02-26T07:47:33;20.43;;;12.77;;
72676;SDS011;60755;51.374;10.662;2024-02-26T07:50:02;20.97;;;13.50;;
72676;SDS011;60755;51.374;10.662;2024-02-26T07:52:29;19.03;;;12.30;;
72676;SDS011;60755;51.374;10.662;2024-02-26T07:54:56;20.60;;;13.77;;
72676;SDS011;60755;51.374;10.662;2024-02-26T07:57:23;19.60;;;12.97;;
72676;SDS011;60755;51.374;10.662;2024-02-26T07:59:51;20.40;;;12.93;;
72676;SDS011;60755;51.374;10.662;2024-02-26T08:02:18;22.63;;;13.73;;
72676;SDS011;60755;51.374;10.662;2024-02-26T08:04:45;19.17;;;12.53;;
72676;SDS011;60755;51.374;10.662;2024-02-26T08:07:13;22.40;;;14.43;;
72676;SDS011;60755;51.374;10.662;2024-02-26T08:09:41;21.80;;;14.77;;
72676;SDS011;60755;51.374;10.662;2024-02-26T08:12:08;21.23;;;12.60;;
72676;SDS011;60755;51.374;10.662;2024-02-26T08:14:35;21.07;;;14.43;;
72676;SDS011;60755;51.374;10.662;2024-02-26T08:17:03;28.13;;;16.47;;
72676;SDS011;60755;51.374;10.662;2024-02-26T08:19:30;23.47;;;15.37;;
72676;SDS011;60755;51.374;10.662;2024-02-26T08:21:58;34.10;;;20.07;;
72676;SDS011;60755;51.374;10.662;2024-02-26T08:24:26;26.27;;;15.73;;
72676;SDS011;60755;51.374;10.662;2024-02-26T08:26:53;28.37;;;16.33;;
72676;SDS011;60755;51.374;10.662;2024-02-26T08:29:21;22.37;;;14.07;;
72676;SDS011;60755;51.374;10.662;2024-02-26T08:31:48;26.17;;;15.90;;
72676;SDS011;60755;51.374;10.662;2024-02-26T08:34:15;21.53;;;14.43;;
72676;SDS011;60755;51.374;10.662;2024-02-26T08:36:43;21.43;;;13.87;;
72676;SDS011;60755;51.374;10.662;2024-02-26T08:39:10;24.83;;;15.90;;
72676;SDS011;60755;51.374;10.662;2024-02-26T08:41:40;23.00;;;14.87;;
72676;SDS011;60755;51.374;10.662;2024-02-26T08:44:08;23.00;;;14.53;;
72676;SDS011;60755;51.374;10.662;2024-02-26T08:46:35;21.80;;;14.33;;
72676;SDS011;60755;51.374;10.662;2024-02-26T08:49:02;41.40;;;25.37;;
72676;SDS011;60755;51.374;10.662;2024-02-26T08:51:30;31.30;;;19.50;;
72676;SDS011;60755;51.374;10.662;2024-02-26T08:53:57;34.07;;;21.97;;
72676;SDS011;60755;51.374;10.662;2024-02-26T08:56:24;27.90;;;17.83;;
72676;SDS011;60755;51.374;10.662;2024-02-26T08:58:53;21.50;;;13.87;;
72676;SDS011;60755;51.374;10.662;2024-02-26T09:01:22;21.63;;;13.57;;
72676;SDS011;60755;51.374;10.662;2024-02-26T09:03:50;20.97;;;13.13;;
72676;SDS011;60755;51.374;10.662;2024-02-26T09:06:17;24.63;;;17.07;;
72676;SDS011;60755;51.374;10.662;2024-02-26T09:08:44;20.50;;;12.67;;
72676;SDS011;60755;51.374;10.662;2024-02-26T09:11:11;19.73;;;13.40;;
72676;SDS011;60755;51.374;10.662;2024-02-26T09:13:38;19.93;;;13.00;;
72676;SDS011;60755;51.374;10.662;2024-02-26T09:16:07;20.70;;;13.43;;
72676;SDS011;60755;51.374;10.662;2024-02-26T09:18:35;23.50;;;14.67;;
72676;SDS011;60755;51.374;10.662;2024-02-26T09:21:03;22.77;;;14.70;;
72676;SDS011;60755;51.374;10.662;2024-02-26T09:23:31;22.57;;;14.87;;
72676;SDS011;60755;51.374;10.662;2024-02-26T09:25:58;29.97;;;18.03;;
72676;SDS011;60755;51.374;10.662;2024-02-26T09:28:25;40.70;;;26.13;;
72676;SDS011;60755;51.374;10.662;2024-02-26T09:30:52;21.90;;;14.60;;
72676;SDS011;60755;51.374;10.662;2024-02-26T09:33:21;19.47;;;13.63;;
72676;SDS011;60755;51.374;10.662;2024-02-26T09:35:49;22.60;;;12.87;;
72676;SDS011;60755;51.374;10.662;2024-02-26T09:38:16;23.63;;;14.47;;
72676;SDS011;60755;51.374;10.662;2024-02-26T09:40:43;25.13;;;14.53;;
72676;SDS011;60755;51.374;10.662;2024-02-26T09:43:10;23.10;;;14.37;;
72676;SDS011;60755;51.374;10.662;2024-02-26T09:45:41;22.67;;;14.03;;
72676;SDS011;60755;51.374;10.662;2024-02-26T09:48:09;18.63;;;12.87;;
72676;SDS011;60755;51.374;10.662;2024-02-26T09:50:40;18.90;;;12.60;;
72676;SDS011;60755;51.374;10.662;2024-02-26T09:53:08;20.63;;;13.37;;
72676;SDS011;60755;51.374;10.662;2024-02-26T09:55:37;17.07;;;11.83;;
72676;SDS011;60755;51.374;10.662;2024-02-26T09:58:04;18.70;;;12.67;;
72676;SDS011;60755;51.374;10.662;2024-02-26T10:00:32;18.73;;;13.13;;
72676;SDS011;60755;51.374;10.662;2024-02-26T10:03:05;20.37;;;14.10;;
72676;SDS011;60755;51.374;10.662;2024-02-26T10:05:36;18.23;;;11.87;;
72676;SDS011;60755;51.374;10.662;2024-02-26T10:08:06;20.57;;;12.77;;
72676;SDS011;60755;51.374;10.662;2024-02-26T10:10:35;16.97;;;11.97;;
72676;SDS011;60755;51.374;10.662;2024-02-26T10:13:04;17.53;;;12.13;;
72676;SDS011;60755;51.374;10.662;2024-02-26T10:15:35;18.97;;;12.37;;
72676;SDS011;60755;51.374;10.662;2024-02-26T10:18:03;20.53;;;12.33;;
72676;SDS011;60755;51.374;10.662;2024-02-26T10:20:31;19.17;;;13.10;;
72676;SDS011;60755;51.374;10.662;2024-02-26T10:22:58;18.90;;;12.23;;
72676;SDS011;60755;51.374;10.662;2024-02-26T10:25:30;18.07;;;12.57;;
72676;SDS011;60755;51.374;10.662;2024-02-26T10:27:59;27.07;;;15.83;;
72676;SDS011;60755;51.374;10.662;2024-02-26T10:30:27;21.03;;;13.03;;
72676;SDS011;60755;51.374;10.662;2024-02-26T10:32:56;16.43;;;12.27;;
72676;SDS011;60755;51.374;10.662;2024-02-26T10:35:23;19.20;;;12.90;;
72676;SDS011;60755;51.374;10.662;2024-02-26T10:37:51;24.10;;;15.77;;
72676;SDS011;60755;51.374;10.662;2024-02-26T10:40:19;19.43;;;13.23;;
72676;SDS011;60755;51.374;10.662;2024-02-26T10:42:48;25.57;;;14.87;;
72676;SDS011;60755;51.374;10.662;2024-02-26T10:45:15;14.67;;;10.90;;
72676;SDS011;60755;51.374;10.662;2024-02-26T10:47:42;19.43;;;11.37;;
72676;SDS011;60755;51.374;10.662;2024-02-26T10:50:10;18.37;;;11.57;;
72676;SDS011;60755;51.374;10.662;2024-02-26T10:52:39;13.53;;;10.20;;
72676;SDS011;60755;51.374;10.662;2024-02-26T10:55:08;17.33;;;11.00;;
72676;SDS011;60755;51.374;10.662;2024-02-26T10:57:44;14.23;;;11.07;;
72676;SDS011;60755;51.374;10.662;2024-02-26T11:00:15;15.70;;;11.20;;
72676;SDS011;60755;51.374;10.662;2024-02-26T11:02:43;15.27;;;10.53;;
72676;SDS011;60755;51.374;10.662;2024-02-26T11:05:12;14.80;;;10.13;;
72676;SDS011;60755;51.374;10.662;2024-02-26T11:07:40;14.90;;;11.13;;
72676;SDS011;60755;51.374;10.662;2024-02-26T11:10:08;15.23;;;11.17;;
72676;SDS011;60755;51.374;10.662;2024-02-26T11:12:38;19.30;;;11.80;;
72676;SDS011;60755;51.374;10.662;2024-02-26T11:15:06;12.80;;;9.80;;
72676;SDS011;60755;51.374;10.662;2024-02-26T11:17:37;16.30;;;10.40;;
72676;SDS011;60755;51.374;10.662;2024-02-26T11:20:05;15.67;;;10.67;;
72676;SDS011;60755;51.374;10.662;2024-02-26T11:22:38;14.70;;;10.03;;
72676;SDS011;60755;51.374;10.662;2024-02-26T11:25:06;19.20;;;11.33;;
72676;SDS011;60755;51.374;10.662;2024-02-26T11:27:38;12.60;;;9.60;;
72676;SDS011;60755;51.374;10.662;2024-02-26T11:30:10;13.90;;;9.93;;
72676;SDS011;60755;51.374;10.662;2024-02-26T11:32:40;15.83;;;10.20;;
72676;SDS011;60755;51.374;10.662;2024-02-26T11:35:11;15.87;;;10.20;;
72676;SDS011;60755;51.374;10.662;2024-02-26T11:37:41;12.67;;;9.70;;
72676;SDS011;60755;51.374;10.662;2024-02-26T11:40:10;14.13;;;10.23;;
72676;SDS011;60755;51.374;10.662;2024-02-26T11:42:43;13.03;;;9.90;;
72676;SDS011;60755;51.374;10.662;2024-02-26T11:48:19;16.80;;;10.87;;
72676;SDS011;60755;51.374;10.662;2024-02-26T11:50:48;14.53;;;10.50;;
72676;SDS011;60755;51.374;10.662;2024-02-26T11:53:19;16.47;;;10.97;;
72676;SDS011;60755;51.374;10.662;2024-02-26T11:55:47;17.97;;;11.13;;
72676;SDS011;60755;51.374;10.662;2024-02-26T11:58:14;17.23;;;11.23;;
72676;SDS011;60755;51.374;10.662;2024-02-26T12:00:42;19.67;;;13.33;;
72676;SDS011;60755;51.374;10.662;2024-02-26T12:03:09;15.53;;;10.90;;
72676;SDS011;60755;51.374;10.662;2024-02-26T12:05:40;16.90;;;10.57;;
72676;SDS011;60755;51.374;10.662;2024-02-26T12:08:08;15.43;;;10.40;;
72676;SDS011;60755;51.374;10.662;2024-02-26T12:10:36;13.17;;;10.27;;
72676;SDS011;60755;51.374;10.662;2024-02-26T12:13:05;12.70;;;10.10;;
72676;SDS011;60755;51.374;10.662;2024-02-26T12:15:37;14.33;;;9.93;;
72676;SDS011;60755;51.374;10.662;2024-02-26T12:18:05;14.13;;;10.10;;
72676;SDS011;60755;51.374;10.662;2024-02-26T12:20:35;17.60;;;11.27;;
72676;SDS011;60755;51.374;10.662;2024-02-26T12:23:04;19.10;;;12.33;;
72676;SDS011;60755;51.374;10.662;2024-02-26T12:25:32;17.67;;;12.07;;
72676;SDS011;60755;51.374;10.662;2024-02-26T12:28:00;15.37;;;10.73;;
72676;SDS011;60755;51.374;10.662;2024-02-26T12:30:27;14.73;;;10.20;;
72676;SDS011;60755;51.374;10.662;2024-02-26T12:33:00;23.40;;;12.73;;
72676;SDS011;60755;51.374;10.662;2024-02-26T12:35:28;12.60;;;10.37;;
72676;SDS011;60755;51.374;10.662;2024-02-26T12:37:57;15.43;;;9.70;;
72676;SDS011;60755;51.374;10.662;2024-02-26T12:40:26;12.83;;;9.57;;
72676;SDS011;60755;51.374;10.662;2024-02-26T12:42:54;14.23;;;9.40;;
72676;SDS011;60755;51.374;10.662;2024-02-26T12:45:21;14.83;;;10.37;;
72676;SDS011;60755;51.374;10.662;2024-02-26T12:47:49;12.57;;;10.07;;
72676;SDS011;60755;51.374;10.662;2024-02-26T12:50:16;14.53;;;9.73;;
72676;SDS011;60755;51.374;10.662;2024-02-26T12:52:44;12.37;;;9.40;;
72676;SDS011;60755;51.374;10.662;2024-02-26T12:55:13;13.37;;;9.53;;
72676;SDS011;60755;51.374;10.662;2024-02-26T12:57:45;15.37;;;10.33;;
72676;SDS011;60755;51.374;10.662;2024-02-26T13:00:15;22.40;;;14.77;;
72676;SDS011;60755;51.374;10.662;2024-02-26T13:02:45;15.80;;;11.50;;
72676;SDS011;60755;51.374;10.662;2024-02-26T13:05:13;16.03;;;11.50;;
72676;SDS011;60755;51.374;10.662;2024-02-26T13:07:41;15.33;;;11.53;;
72676;SDS011;60755;51.374;10.662;2024-02-26T13:10:09;14.90;;;11.37;;
72676;SDS011;60755;51.374;10.662;2024-02-26T13:12:41;14.30;;;9.93;;
72676;SDS011;60755;51.374;10.662;2024-02-26T13:15:15;17.77;;;12.73;;
72676;SDS011;60755;51.374;10.662;2024-02-26T13:17:44;14.90;;;10.63;;
72676;SDS011;60755;51.374;10.662;2024-02-26T13:20:11;13.93;;;10.77;;
72676;SDS011;60755;51.374;10.662;2024-02-26T13:22:39;14.27;;;10.40;;
72676;SDS011;60755;51.374;10.662;2024-02-26T13:25:07;16.63;;;11.43;;
72676;SDS011;60755;51.374;10.662;2024-02-26T13:27:35;13.67;;;9.93;;
72676;SDS011;60755;51.374;10.662;2024-02-26T13:30:06;17.83;;;11.93;;
72676;SDS011;60755;51.374;10.662;2024-02-26T13:32:38;19.30;;;12.87;;
72676;SDS011;60755;51.374;10.662;2024-02-26T13:35:07;18.47;;;12.47;;
72676;SDS011;60755;51.374;10.662;2024-02-26T13:37:35;16.07;;;10.57;;
72676;SDS011;60755;51.374;10.662;2024-02-26T13:40:04;16.27;;;10.47;;
72676;SDS011;60755;51.374;10.662;2024-02-26T13:42:32;23.57;;;13.70;;
72676;SDS011;60755;51.374;10.662;2024-02-26T13:44:59;14.83;;;9.83;;
72676;SDS011;60755;51.374;10.662;2024-02-26T13:47:26;19.90;;;11.37;;
72676;SDS011;60755;51.374;10.662;2024-02-26T13:49:55;15.30;;;10.63;;
72676;SDS011;60755;51.374;10.662;2024-02-26T13:52:22;14.63;;;9.93;;
72676;SDS011;60755;51.374;10.662;2024-02-26T13:54:49;11.63;;;8.07;;
72676;SDS011;60755;51.374;10.662;2024-02-26T13:57:17;11.90;;;8.60;;
72676;SDS011;60755;51.374;10.662;2024-02-26T13:59:44;13.77;;;8.80;;
72676;SDS011;60755;51.374;10.662;2024-02-26T14:02:12;16.97;;;9.90;;
72676;SDS011;60755;51.374;10.662;2024-02-26T14:04:39;11.97;;;8.83;;
72676;SDS011;60755;51.374;10.662;2024-02-26T14:07:07;13.47;;;9.20;;
72676;SDS011;60755;51.374;10.662;2024-02-26T14:09:35;13.47;;;9.20;;
72676;SDS011;60755;51.374;10.662;2024-02-26T14:12:03;10.40;;;8.23;;
72676;SDS011;60755;51.374;10.662;2024-02-26T14:14:30;12.70;;;8.43;;
72676;SDS011;60755;51.374;10.662;2024-02-26T14:17:01;10.97;;;8.90;;
72676;SDS011;60755;51.374;10.662;2024-02-26T14:19:29;13.73;;;9.17;;
72676;SDS011;60755;51.374;10.662;2024-02-26T14:21:56;11.70;;;8.40;;
72676;SDS011;60755;51.374;10.662;2024-02-26T14:24:25;12.77;;;8.10;;